Lockerbie, United Kingdom
Current Conditions -  °F | °C
As of 3:50 AM on Thursday 18 Dec 2014 (Local Time) from EGOM Reporting Station
NA  
Wind Chill:   Ceiling: NA
Heat Index:   Visibility: 6mi
Dew Point:   Wind: 26mph
Humidity: 100%   Direction: 240°WSW
Pressure: 29.47"   Gusts: 39mph
Location:  55.12°N, 3.36°W
Report Text: EGOM 180350Z AUTO 24023G34KT 9999 ///////// 09/09 Q0998
Loading
Personal Weather Stations






























Interactive Weather Map New forecast layout! Learn more

10-Day Weather Forecast

Advertisements
Track Severe Weather on mobile